createdAt,value
2023-01-31T00:01:59.922Z,101074.69
2023-01-31T00:07:03.024Z,101068.88
2023-01-31T00:12:04.840Z,101066.09
2023-01-31T00:17:06.512Z,101075.31
2023-01-31T00:22:09.514Z,101082.75
2023-01-31T00:27:11.161Z,101078.09
2023-01-31T00:32:12.971Z,101083.63
2023-01-31T00:37:16.427Z,101080.81
2023-01-31T00:42:18.123Z,101089.09
2023-01-31T00:47:19.925Z,101100.31
2023-01-31T00:52:23.105Z,101109.47
2023-01-31T00:57:24.884Z,101134.38
2023-01-31T01:02:26.709Z,101146.28
2023-01-31T01:07:29.744Z,101137.88
2023-01-31T01:12:31.971Z,101148.13
2023-01-31T01:17:34.281Z,101144.56
2023-01-31T01:22:38.408Z,101168.84
2023-01-31T01:27:40.146Z,101170.91
2023-01-31T01:32:42.020Z,101163.34
2023-01-31T01:37:45.027Z,101164.16
2023-01-31T01:42:46.798Z,101167.91
2023-01-31T01:47:50.250Z,101181.97
2023-01-31T01:52:54.091Z,101177.66
2023-01-31T01:57:57.141Z,101179.06
2023-01-31T02:02:59.733Z,101188.25
2023-01-31T02:08:02.764Z,101188.16
2023-01-31T02:13:04.412Z,101200.78
2023-01-31T02:18:06.265Z,101200.88
2023-01-31T02:23:22.772Z,101200.91
2023-01-31T02:29:03.114Z,101195.28
2023-01-31T02:34:08.600Z,101194.00
2023-01-31T02:39:13.933Z,101186.53
2023-01-31T02:44:38.927Z,101196.44
2023-01-31T02:49:45.416Z,101209.63
2023-01-31T02:55:19.655Z,101222.56
2023-01-31T03:00:22.168Z,101234.91
2023-01-31T03:05:26.007Z,101229.91
2023-01-31T03:10:42.254Z,101234.41
2023-01-31T03:16:07.300Z,101223.31
2023-01-31T03:21:12.816Z,101217.97
2023-01-31T03:26:15.498Z,101214.63
2023-01-31T03:31:18.860Z,101218.94
2023-01-31T03:36:26.825Z,101213.56
2023-01-31T03:41:37.580Z,101211.59
2023-01-31T03:46:41.118Z,101202.13
2023-01-31T03:51:46.456Z,101197.03
2023-01-31T03:56:51.773Z,101193.66
2023-01-31T04:01:54.721Z,101196.94
2023-01-31T04:06:57.923Z,101201.34
2023-01-31T04:11:59.831Z,101205.59
2023-01-31T04:17:01.488Z,101209.97
2023-01-31T04:22:04.462Z,101198.84
2023-01-31T04:27:06.132Z,101197.97
2023-01-31T04:32:07.969Z,101200.47
2023-01-31T04:37:11.260Z,101200.41
2023-01-31T04:42:12.945Z,101206.41
2023-01-31T04:47:14.795Z,101202.13
2023-01-31T04:52:17.823Z,101199.47
2023-01-31T04:57:19.586Z,101221.03
2023-01-31T05:02:23.293Z,101214.88
2023-01-31T05:07:26.566Z,101213.09
2023-01-31T05:12:28.460Z,101214.03
2023-01-31T05:17:30.545Z,101200.78
2023-01-31T05:22:33.844Z,101200.44
2023-01-31T05:27:35.839Z,101199.59
2023-01-31T05:32:39.369Z,101202.19
2023-01-31T05:37:46.061Z,101207.31
2023-01-31T05:42:50.599Z,101226.22
2023-01-31T05:47:52.248Z,101218.09
2023-01-31T05:52:56.360Z,101222.06
2023-01-31T05:57:58.057Z,101235.78
2023-01-31T06:03:00.148Z,101231.22
2023-01-31T06:08:03.285Z,101239.00
2023-01-31T06:13:07.279Z,101239.31
2023-01-31T06:18:08.936Z,101240.97
2023-01-31T06:23:11.942Z,101226.44
2023-01-31T06:28:13.640Z,101225.06
2023-01-31T06:33:15.455Z,101218.03
2023-01-31T06:38:18.442Z,101207.88
2023-01-31T06:43:20.184Z,101192.31
2023-01-31T06:48:21.901Z,101178.50
2023-01-31T06:53:25.050Z,101178.66
2023-01-31T06:58:26.775Z,101162.25
2023-01-31T07:03:28.484Z,101160.75
2023-01-31T07:08:34.653Z,101148.75
2023-01-31T07:13:37.565Z,101147.03
2023-01-31T07:18:39.265Z,101124.63
2023-01-31T07:23:45.373Z,101118.72
2023-01-31T07:28:47.146Z,101112.94
2023-01-31T07:33:48.858Z,101111.44
2023-01-31T07:38:53.275Z,101095.97
2023-01-31T07:43:55.062Z,101081.63
2023-01-31T07:48:57.084Z,101071.53
2023-01-31T07:54:00.341Z,101067.06
2023-01-31T07:59:01.996Z,101067.56
2023-01-31T08:04:19.513Z,101060.81
2023-01-31T08:09:24.901Z,101045.44
2023-01-31T08:14:28.214Z,101044.78
2023-01-31T08:19:30.540Z,101051.84
2023-01-31T08:24:33.562Z,101040.06
2023-01-31T08:29:35.773Z,101029.13
2023-01-31T08:34:37.465Z,101024.34
2023-01-31T08:39:41.052Z,101005.47
2023-01-31T08:44:43.760Z,100996.88
2023-01-31T08:49:45.487Z,101001.41
2023-01-31T08:54:48.602Z,100999.22
2023-01-31T08:59:50.304Z,101005.72
2023-01-31T09:04:52.000Z,100982.38
2023-01-31T09:09:55.009Z,100990.31
2023-01-31T09:14:56.703Z,100970.38
2023-01-31T09:19:58.570Z,100976.66
2023-01-31T09:25:01.947Z,100953.56
2023-01-31T09:30:05.009Z,100934.09
2023-01-31T09:35:07.750Z,100934.34
2023-01-31T09:40:13.022Z,100925.53
2023-01-31T09:45:15.795Z,100931.59
2023-01-31T09:50:19.667Z,100932.22
2023-01-31T09:55:24.467Z,100918.25
2023-01-31T10:00:29.094Z,100903.56
2023-01-31T10:05:33.289Z,100917.50
2023-01-31T10:10:37.491Z,100939.97
2023-01-31T10:15:41.052Z,100923.56
2023-01-31T10:20:43.933Z,100913.59
2023-01-31T10:25:50.834Z,100899.72
2023-01-31T10:30:56.714Z,100896.19
2023-01-31T10:35:58.451Z,100888.97
2023-01-31T10:41:06.654Z,100884.59
2023-01-31T10:46:10.552Z,100871.38
2023-01-31T10:51:19.322Z,100838.66
2023-01-31T10:56:25.256Z,100847.16
2023-01-31T11:01:27.063Z,100826.50
2023-01-31T11:06:28.885Z,100815.25
2023-01-31T11:11:32.385Z,100805.03
2023-01-31T11:16:35.554Z,100788.78
2023-01-31T11:21:38.061Z,100806.94
2023-01-31T11:26:41.207Z,100787.06
2023-01-31T11:31:43.399Z,100786.06
2023-01-31T11:36:48.246Z,100767.97
2023-01-31T11:41:51.287Z,100747.91
2023-01-31T11:46:54.495Z,100752.50
2023-01-31T11:51:56.996Z,100748.91
2023-01-31T11:57:00.212Z,100739.47
2023-01-31T12:02:02.107Z,100724.09
2023-01-31T12:07:05.327Z,100710.56
2023-01-31T12:12:21.838Z,100714.13
2023-01-31T12:17:23.641Z,100702.19
2023-01-31T12:22:27.544Z,100681.63
2023-01-31T12:27:39.607Z,100673.06
2023-01-31T12:32:49.558Z,100669.75
2023-01-31T12:37:56.600Z,100667.22
2023-01-31T12:43:00.556Z,100677.69
2023-01-31T12:48:22.418Z,100666.59
2023-01-31T12:53:32.384Z,100666.63
2023-01-31T12:58:41.672Z,100675.38
2023-01-31T13:03:52.244Z,100665.59
2023-01-31T13:09:07.357Z,100671.69
2023-01-31T13:14:14.166Z,100669.03
2023-01-31T13:19:18.359Z,100660.41
2023-01-31T13:24:21.477Z,100657.81
2023-01-31T13:29:25.770Z,100650.88
2023-01-31T13:34:29.368Z,100646.50
2023-01-31T13:39:32.833Z,100653.47
2023-01-31T13:44:35.867Z,100638.72
2023-01-31T13:49:38.317Z,100643.84
2023-01-31T13:54:40.889Z,100635.19
2023-01-31T13:59:44.525Z,100629.06
2023-01-31T14:04:47.595Z,100643.69
2023-01-31T14:10:22.973Z,100635.97
2023-01-31T14:15:47.557Z,100621.34
2023-01-31T14:20:49.266Z,100618.09
2023-01-31T14:25:50.906Z,100617.00
2023-01-31T14:30:54.128Z,100622.28
2023-01-31T14:36:17.092Z,100626.88
2023-01-31T14:41:22.444Z,100615.59
2023-01-31T14:46:41.034Z,100615.78
2023-01-31T14:51:53.950Z,100606.25
2023-01-31T14:57:10.445Z,100598.59
2023-01-31T15:02:35.538Z,100590.16
2023-01-31T15:07:37.460Z,100606.66
2023-01-31T15:12:55.126Z,100593.75
2023-01-31T15:17:59.304Z,100601.50
2023-01-31T15:23:04.763Z,100593.78
2023-01-31T15:28:06.981Z,100594.03
2023-01-31T15:33:15.064Z,100595.97
2023-01-31T15:38:22.593Z,100622.94
2023-01-31T15:43:24.815Z,100592.94
2023-01-31T15:48:27.935Z,100609.31
2023-01-31T15:53:32.949Z,100592.06
2023-01-31T15:58:35.108Z,100608.59
2023-01-31T16:03:40.226Z,100608.69
2023-01-31T16:08:41.919Z,100611.94
2023-01-31T16:13:43.618Z,100630.09
2023-01-31T16:18:48.455Z,100637.13
2023-01-31T16:23:57.523Z,100620.38
2023-01-31T16:29:00.684Z,100617.72
2023-01-31T16:34:05.235Z,100619.34
2023-01-31T16:39:06.941Z,100620.44
2023-01-31T16:44:12.375Z,100634.28
2023-01-31T16:49:20.794Z,100627.47
2023-01-31T16:54:23.316Z,100626.38
2023-01-31T16:59:47.395Z,100626.50
2023-01-31T17:04:51.645Z,100629.22
2023-01-31T17:09:54.118Z,100632.53
2023-01-31T17:15:01.570Z,100626.50
2023-01-31T17:20:07.249Z,100632.69
2023-01-31T17:25:13.611Z,100620.63
2023-01-31T17:30:16.446Z,100618.16
2023-01-31T17:35:20.777Z,100623.50
2023-01-31T17:40:22.575Z,100633.56
2023-01-31T17:45:24.606Z,100628.38
2023-01-31T17:50:28.156Z,100629.09
2023-01-31T17:55:29.844Z,100627.38
2023-01-31T18:00:31.559Z,100638.53
2023-01-31T18:05:39.199Z,100641.06
2023-01-31T18:10:41.527Z,100639.19
2023-01-31T18:15:43.317Z,100640.06
2023-01-31T18:20:47.336Z,100645.28
2023-01-31T18:25:49.090Z,100630.72
2023-01-31T18:30:51.328Z,100630.81
2023-01-31T18:35:58.279Z,100645.69
2023-01-31T18:41:02.770Z,100649.03
2023-01-31T18:46:04.648Z,100648.03
2023-01-31T18:51:08.650Z,100652.38
2023-01-31T18:56:11.122Z,100653.22
2023-01-31T19:01:14.361Z,100661.06
2023-01-31T19:06:18.432Z,100655.66
2023-01-31T19:11:21.329Z,100664.28
2023-01-31T19:16:23.851Z,100670.31
2023-01-31T19:21:27.727Z,100672.81
2023-01-31T19:26:29.697Z,100671.91
2023-01-31T19:31:31.876Z,100668.34
2023-01-31T19:36:36.620Z,100671.81
2023-01-31T19:41:38.459Z,100672.63
2023-01-31T19:46:40.195Z,100676.97
2023-01-31T19:51:43.326Z,100685.50
2023-01-31T19:56:45.084Z,100690.84
2023-01-31T20:01:46.793Z,100697.84
2023-01-31T20:06:51.067Z,100697.84
2023-01-31T20:11:53.890Z,100708.00
2023-01-31T20:16:55.699Z,100696.56
2023-01-31T20:21:58.717Z,100710.38
2023-01-31T20:27:01.429Z,100711.88
2023-01-31T20:32:04.495Z,100720.75
2023-01-31T20:37:07.536Z,100727.69
2023-01-31T20:42:10.546Z,100731.16
2023-01-31T20:47:12.447Z,100741.56
2023-01-31T20:52:15.505Z,100736.41
2023-01-31T20:57:17.407Z,100741.09
2023-01-31T21:02:19.159Z,100738.31
2023-01-31T21:07:22.552Z,100732.41
2023-01-31T21:12:24.215Z,100731.75
2023-01-31T21:17:39.281Z,100735.75
2023-01-31T21:22:43.207Z,100735.41
2023-01-31T21:27:44.897Z,100724.00
2023-01-31T21:32:46.572Z,100721.22
2023-01-31T21:37:49.681Z,100725.34
2023-01-31T21:42:51.481Z,100743.50
2023-01-31T21:48:13.929Z,100743.38
2023-01-31T21:53:18.360Z,100733.50
2023-01-31T21:58:20.787Z,100729.75
2023-01-31T22:03:22.465Z,100729.66
2023-01-31T22:08:25.445Z,100730.38
2023-01-31T22:13:27.181Z,100730.16
2023-01-31T22:18:29.385Z,100737.78
2023-01-31T22:23:32.562Z,100737.78
2023-01-31T22:28:34.902Z,100739.44
2023-01-31T22:33:37.973Z,100750.63
2023-01-31T22:38:41.020Z,100742.84
2023-01-31T22:43:43.989Z,100733.34
2023-01-31T22:48:47.096Z,100731.50
2023-01-31T22:53:50.153Z,100722.72
2023-01-31T22:58:55.183Z,100725.22
2023-01-31T23:03:57.731Z,100712.25
2023-01-31T23:09:00.767Z,100722.53
2023-01-31T23:14:03.017Z,100728.56
2023-01-31T23:19:04.783Z,100720.66
2023-01-31T23:24:09.010Z,100726.72
2023-01-31T23:29:10.764Z,100714.66
2023-01-31T23:34:12.461Z,100718.13
2023-01-31T23:39:15.496Z,100729.25
2023-01-31T23:44:17.274Z,100714.66
2023-01-31T23:49:18.985Z,100720.88
2023-01-31T23:54:22.009Z,100718.38
2023-01-31T23:59:23.701Z,100710.69
